Ashwood, Texas
Current Conditions -  °F | °C
As of 5:53 AM on Friday 19 Dec 2014 (Local Time) from KLBX Reporting Station
Overcast Overcast  
Wind Chill: 58°   Ceiling: 1500
Heat Index: 58°   Visibility: 10mi
Dew Point: 58°   Wind: 9mph
Humidity: 100%   Direction: 60°ENE
Pressure: 29.99"   Gusts: NA
Location:  29.0235°N, 95.7113°W
Report Text: KLBX 191153Z AUTO 06008KT 10SM SCT006 OVC015 14/14 A2999 RMK AO2 LTG DSNT N RAB1055E53 SLP154 P0005 60009 70115 T01440144 10167 20144 56006
Loading
Personal Weather Stations






























Interactive Weather Map New forecast layout! Learn more

10-Day Weather Forecast

Advertisements
Track Severe Weather on mobile